createdAt,value
2019-05-05T00:00:14.340Z,94925
2019-05-05T00:01:25.013Z,94920
2019-05-05T00:02:34.213Z,94925
2019-05-05T00:03:44.373Z,94929
2019-05-05T00:04:51.701Z,94931
2019-05-05T00:06:01.247Z,94934
2019-05-05T00:07:10.763Z,94938
2019-05-05T00:08:20.305Z,94940
2019-05-05T00:09:29.840Z,94944
2019-05-05T00:10:39.386Z,94936
2019-05-05T00:11:48.902Z,94941
2019-05-05T00:12:58.495Z,94939
2019-05-05T00:14:08.028Z,94952
2019-05-05T00:15:18.542Z,94954
2019-05-05T00:16:28.106Z,94947
2019-05-05T00:17:37.651Z,94947
2019-05-05T00:18:48.197Z,94947
2019-05-05T00:19:57.711Z,94949
2019-05-05T00:21:08.242Z,94958
2019-05-05T00:22:17.788Z,94951
2019-05-05T00:23:27.334Z,94952
2019-05-05T00:24:37.857Z,94945
2019-05-05T00:25:47.391Z,94944
2019-05-05T00:26:57.906Z,94943
2019-05-05T00:28:07.441Z,94943
2019-05-05T00:29:16.975Z,94940
2019-05-05T00:30:27.491Z,94946
2019-05-05T00:31:37.015Z,94959
2019-05-05T00:32:47.541Z,94956
2019-05-05T00:33:58.080Z,94957
2019-05-05T00:35:07.626Z,94965
2019-05-05T00:36:18.158Z,94956
2019-05-05T00:37:27.690Z,94963
2019-05-05T00:38:37.246Z,94963
2019-05-05T00:39:47.781Z,94970
2019-05-05T00:40:57.300Z,94969
2019-05-05T00:42:05.801Z,94971
2019-05-05T00:43:15.308Z,94968
2019-05-05T00:44:24.857Z,94972
2019-05-05T00:45:34.494Z,94974
2019-05-05T00:46:44.669Z,94976
2019-05-05T00:47:54.405Z,94975
2019-05-05T00:49:03.001Z,94976
2019-05-05T00:50:14.423Z,94972
2019-05-05T00:51:24.252Z,94973
2019-05-05T00:52:31.586Z,94974
2019-05-05T00:53:41.161Z,94975
2019-05-05T00:54:50.693Z,94967
2019-05-05T00:56:00.203Z,94967
2019-05-05T00:57:09.736Z,94972
2019-05-05T00:58:19.263Z,94971
2019-05-05T00:59:28.803Z,94967
2019-05-05T01:00:38.328Z,94972
2019-05-05T01:01:47.848Z,94968
2019-05-05T01:02:58.368Z,94972
2019-05-05T01:04:07.902Z,94973
2019-05-05T01:05:17.441Z,94974
2019-05-05T01:06:27.951Z,94971
2019-05-05T01:07:37.476Z,94973
2019-05-05T01:08:47.037Z,94977
2019-05-05T01:09:57.570Z,94976
2019-05-05T01:11:08.113Z,94984
2019-05-05T01:12:17.621Z,94986
2019-05-05T01:13:27.149Z,94985
2019-05-05T01:14:37.688Z,94985
2019-05-05T01:15:47.226Z,94994
2019-05-05T01:16:56.761Z,94991
2019-05-05T01:18:07.287Z,94990
2019-05-05T01:19:17.857Z,94991
2019-05-05T01:20:27.389Z,94991
2019-05-05T01:21:36.930Z,95001
2019-05-05T01:22:47.441Z,94999
2019-05-05T01:23:57.958Z,95002
2019-05-05T01:25:08.476Z,95006
2019-05-05T01:26:17.994Z,95006
2019-05-05T01:27:27.524Z,95001
2019-05-05T01:28:38.023Z,95004
2019-05-05T01:29:47.577Z,95004
2019-05-05T01:30:57.091Z,95008
2019-05-05T01:32:07.642Z,95009
2019-05-05T01:33:18.145Z,95012
2019-05-05T01:34:27.681Z,95008
2019-05-05T01:35:38.204Z,95013
2019-05-05T01:36:47.734Z,95005
2019-05-05T01:37:57.259Z,95009
2019-05-05T01:39:07.780Z,95008
2019-05-05T01:40:17.363Z,95011
2019-05-05T01:41:27.877Z,95015
2019-05-05T01:42:37.428Z,95017
2019-05-05T01:43:47.975Z,95018
2019-05-05T01:44:57.518Z,95021
2019-05-05T01:46:07.043Z,95013
2019-05-05T01:47:17.594Z,95011
2019-05-05T01:48:28.114Z,95011
2019-05-05T01:49:37.668Z,95008
2019-05-05T01:50:48.163Z,95009
2019-05-05T01:51:57.685Z,95009
2019-05-05T01:53:07.209Z,95010
2019-05-05T01:54:17.723Z,95010
2019-05-05T01:55:28.290Z,95011
2019-05-05T01:56:37.839Z,95015
2019-05-05T01:57:47.359Z,95006
2019-05-05T01:58:56.894Z,95013
2019-05-05T02:00:07.472Z,95009
2019-05-05T02:01:17.990Z,95006
2019-05-05T02:02:27.516Z,95009
2019-05-05T02:03:37.031Z,95007
2019-05-05T02:04:47.555Z,95008
2019-05-05T02:05:58.104Z,95008
2019-05-05T02:07:08.635Z,95004
2019-05-05T02:08:18.177Z,95003
2019-05-05T02:09:27.719Z,95003
2019-05-05T02:10:38.249Z,95008
2019-05-05T02:11:48.763Z,95006
2019-05-05T02:12:58.289Z,95003
2019-05-05T02:14:07.816Z,95003
2019-05-05T02:15:18.366Z,95003
2019-05-05T02:16:27.886Z,95002
2019-05-05T02:17:37.408Z,94998
2019-05-05T02:18:47.951Z,94999
2019-05-05T02:19:57.471Z,94998
2019-05-05T02:21:08.044Z,94995
2019-05-05T02:22:17.587Z,94989
2019-05-05T02:23:28.106Z,94989
2019-05-05T02:24:37.686Z,94990
2019-05-05T02:25:47.238Z,94987
2019-05-05T02:26:57.758Z,94993
2019-05-05T02:28:08.268Z,94995
2019-05-05T02:29:17.784Z,94991
2019-05-05T02:30:27.331Z,94990
2019-05-05T02:31:37.848Z,94990
2019-05-05T02:32:48.357Z,94994
2019-05-05T02:33:57.903Z,94998
2019-05-05T02:35:08.440Z,94994
2019-05-05T02:36:18.967Z,94997
2019-05-05T02:37:28.492Z,94998
2019-05-05T02:38:39.036Z,94993
2019-05-05T02:39:57.592Z,94996
2019-05-05T02:41:00.047Z,94995
2019-05-05T02:42:09.534Z,94999
2019-05-05T02:43:19.070Z,94998
2019-05-05T02:44:28.619Z,95000
2019-05-05T02:45:38.141Z,95005
2019-05-05T02:46:47.683Z,95009
2019-05-05T02:47:58.187Z,95006
2019-05-05T02:49:08.731Z,95007
2019-05-05T02:50:18.277Z,95006
2019-05-05T02:51:27.801Z,95013
2019-05-05T02:52:38.328Z,95008
2019-05-05T02:53:47.895Z,95016
2019-05-05T02:54:57.414Z,95014
2019-05-05T02:56:06.935Z,95020
2019-05-05T02:57:17.473Z,95023
2019-05-05T02:58:26.997Z,95019
2019-05-05T02:59:36.544Z,95020
2019-05-05T03:00:46.072Z,95024
2019-05-05T03:01:56.611Z,95027
2019-05-05T03:03:07.104Z,95026
2019-05-05T03:04:16.642Z,95027
2019-05-05T03:05:27.186Z,95030
2019-05-05T03:06:36.720Z,95034
2019-05-05T03:07:46.236Z,95039
2019-05-05T03:08:56.750Z,95035
2019-05-05T03:10:07.263Z,95037
2019-05-05T03:11:16.779Z,95037
2019-05-05T03:12:26.363Z,95044
2019-05-05T03:13:36.909Z,95039
2019-05-05T03:14:47.427Z,95042
2019-05-05T03:15:56.968Z,95047
2019-05-05T03:17:06.513Z,95044
2019-05-05T03:18:17.047Z,95052
2019-05-05T03:19:27.574Z,95052
2019-05-05T03:20:37.090Z,95050
2019-05-05T03:21:46.644Z,95051
2019-05-05T03:22:57.154Z,95048
2019-05-05T03:24:06.679Z,95048
2019-05-05T03:25:17.202Z,95050
2019-05-05T03:26:26.724Z,95050
2019-05-05T03:27:37.279Z,95053
2019-05-05T03:28:47.792Z,95055
2019-05-05T03:29:57.323Z,95049
2019-05-05T03:31:07.818Z,95057
2019-05-05T03:32:18.345Z,95053
2019-05-05T03:33:28.880Z,95054
2019-05-05T03:34:38.412Z,95052
2019-05-05T03:35:47.924Z,95052
2019-05-05T03:36:57.485Z,95051
2019-05-05T03:38:07.037Z,95051
2019-05-05T03:39:17.581Z,95055
2019-05-05T03:40:27.111Z,95057
2019-05-05T03:41:37.631Z,95058
2019-05-05T03:42:47.173Z,95056
2019-05-05T03:43:57.019Z,95062
2019-05-05T03:45:07.238Z,95060
2019-05-05T03:46:17.760Z,95062
2019-05-05T03:47:27.280Z,95065
2019-05-05T03:48:36.806Z,95067
2019-05-05T03:49:46.313Z,95068
2019-05-05T03:50:56.833Z,95064
2019-05-05T03:52:07.362Z,95065
2019-05-05T03:53:16.895Z,95066
2019-05-05T03:54:27.418Z,95062
2019-05-05T03:55:36.949Z,95065
2019-05-05T03:56:46.470Z,95066
2019-05-05T03:57:57.020Z,95065
2019-05-05T03:59:07.549Z,95060
2019-05-05T04:00:17.053Z,95069
2019-05-05T04:01:26.574Z,95062
2019-05-05T04:02:37.108Z,95061
2019-05-05T04:03:47.625Z,95062
2019-05-05T04:04:57.148Z,95062
2019-05-05T04:06:06.681Z,95062
2019-05-05T04:07:17.192Z,95066
2019-05-05T04:08:26.732Z,95064
2019-05-05T04:09:37.256Z,95069
2019-05-05T04:10:46.765Z,95076
2019-05-05T04:11:57.288Z,95072
2019-05-05T04:13:07.819Z,95075
2019-05-05T04:14:18.444Z,95074
2019-05-05T04:15:27.847Z,95073
2019-05-05T04:16:37.359Z,95078
2019-05-05T04:17:46.871Z,95076
2019-05-05T04:18:56.385Z,95079
2019-05-05T04:20:06.905Z,95080
2019-05-05T04:21:29.544Z,95081
2019-05-05T04:22:26.928Z,95085
2019-05-05T04:23:37.454Z,95085
2019-05-05T04:24:46.989Z,95089
2019-05-05T04:25:57.515Z,95092
2019-05-05T04:27:07.031Z,95092
2019-05-05T04:28:17.559Z,95093
2019-05-05T04:29:27.064Z,95097
2019-05-05T04:30:37.583Z,95096
2019-05-05T04:31:47.111Z,95094
2019-05-05T04:32:56.631Z,95092
2019-05-05T04:34:07.137Z,95097
2019-05-05T04:35:16.681Z,95094
2019-05-05T04:36:27.189Z,95095
2019-05-05T04:37:36.738Z,95097
2019-05-05T04:38:46.283Z,95096
2019-05-05T04:39:56.799Z,95098
2019-05-05T04:41:07.335Z,95095
2019-05-05T04:42:16.843Z,95098
2019-05-05T04:43:27.372Z,95102
2019-05-05T04:44:36.913Z,95100
2019-05-05T04:45:47.441Z,95106
2019-05-05T04:46:56.965Z,95104
2019-05-05T04:48:06.506Z,95114
2019-05-05T04:49:17.049Z,95114
2019-05-05T04:50:26.564Z,95115
2019-05-05T04:51:46.516Z,95117
2019-05-05T04:52:47.647Z,95120
2019-05-05T04:53:57.143Z,95120
2019-05-05T04:55:06.675Z,95123
2019-05-05T04:56:17.231Z,95124
2019-05-05T04:57:27.750Z,95128
2019-05-05T04:58:38.289Z,95129
2019-05-05T04:59:47.802Z,95130
2019-05-05T05:00:57.303Z,95133
2019-05-05T05:02:07.811Z,95130
2019-05-05T05:03:17.359Z,95133
2019-05-05T05:04:26.883Z,95131
2019-05-05T05:05:36.398Z,95132
2019-05-05T05:06:46.925Z,95132
2019-05-05T05:07:58.057Z,95131
2019-05-05T05:09:06.985Z,95137
2019-05-05T05:10:17.496Z,95133
2019-05-05T05:11:27.016Z,95134
2019-05-05T05:12:36.546Z,95134
2019-05-05T05:13:46.094Z,95136
2019-05-05T05:14:56.601Z,95130
2019-05-05T05:16:07.118Z,95133
2019-05-05T05:17:19.579Z,95134
2019-05-05T05:18:27.127Z,95134
2019-05-05T05:19:37.648Z,95132
2019-05-05T05:20:47.188Z,95140
2019-05-05T05:22:01.758Z,95136
2019-05-05T05:23:08.248Z,95136
2019-05-05T05:24:17.772Z,95135
2019-05-05T05:25:27.304Z,95139
2019-05-05T05:26:37.807Z,95138
2019-05-05T05:27:47.350Z,95141
2019-05-05T05:28:56.896Z,95142
2019-05-05T05:30:07.412Z,95140
2019-05-05T05:31:16.930Z,95129
2019-05-05T05:32:27.434Z,95135
2019-05-05T05:33:36.984Z,95133
2019-05-05T05:34:46.491Z,95134
2019-05-05T05:35:57.034Z,95137
2019-05-05T05:37:06.575Z,95138
2019-05-05T05:38:16.112Z,95138
2019-05-05T05:39:26.639Z,95145
2019-05-05T05:40:36.168Z,95145
2019-05-05T05:41:46.714Z,95149
2019-05-05T05:42:57.220Z,95151
2019-05-05T05:44:07.748Z,95159
2019-05-05T05:45:17.259Z,95163
2019-05-05T05:46:26.778Z,95162
2019-05-05T05:47:36.310Z,95161
2019-05-05T05:48:46.841Z,95161
2019-05-05T05:49:56.384Z,95157
2019-05-05T05:51:06.908Z,95161
2019-05-05T05:52:19.144Z,95168
2019-05-05T05:53:26.927Z,95169
2019-05-05T05:54:37.475Z,95170
2019-05-05T05:55:47.028Z,95175
2019-05-05T05:56:56.565Z,95172
2019-05-05T05:58:07.102Z,95177
2019-05-05T05:59:16.651Z,95177
2019-05-05T06:00:27.198Z,95179
2019-05-05T06:01:37.701Z,95181
2019-05-05T06:02:47.229Z,95183
2019-05-05T06:03:57.756Z,95181
2019-05-05T06:05:07.266Z,95185
2019-05-05T06:06:17.802Z,95183
2019-05-05T06:07:27.318Z,95186
2019-05-05T06:08:36.825Z,95185
2019-05-05T06:09:47.357Z,95188
2019-05-05T06:10:56.906Z,95189
2019-05-05T06:12:07.439Z,95191
2019-05-05T06:13:16.947Z,95195
2019-05-05T06:14:27.500Z,95202
2019-05-05T06:15:37.031Z,95201
2019-05-05T06:16:47.560Z,95205
2019-05-05T06:17:57.066Z,95205
2019-05-05T06:19:10.200Z,95205
2019-05-05T06:20:17.148Z,95209
2019-05-05T06:21:26.697Z,95205
2019-05-05T06:22:36.240Z,95209
2019-05-05T06:23:46.774Z,95216
2019-05-05T06:24:56.328Z,95215
2019-05-05T06:26:07.323Z,95214
2019-05-05T06:27:17.352Z,95221
2019-05-05T06:28:26.873Z,95221
2019-05-05T06:29:37.406Z,95221
2019-05-05T06:30:46.921Z,95221
2019-05-05T06:31:57.453Z,95221
2019-05-05T06:33:06.960Z,95223
2019-05-05T06:34:16.492Z,95220
2019-05-05T06:35:27.038Z,95221
2019-05-05T06:36:36.567Z,95225
2019-05-05T06:37:47.084Z,95227
2019-05-05T06:38:57.600Z,95227
2019-05-05T06:40:07.137Z,95230
2019-05-05T06:41:16.679Z,95227
2019-05-05T06:42:26.233Z,95225
2019-05-05T06:43:36.770Z,95223
2019-05-05T06:44:47.285Z,95222
2019-05-05T06:45:56.815Z,95223
2019-05-05T06:47:07.343Z,95226
2019-05-05T06:48:16.858Z,95230
2019-05-05T06:49:26.393Z,95230
2019-05-05T06:50:36.917Z,95227
2019-05-05T06:51:46.449Z,95232
2019-05-05T06:52:56.960Z,95233
2019-05-05T06:54:07.501Z,95238
2019-05-05T06:55:17.018Z,95236
2019-05-05T06:56:27.549Z,95243
2019-05-05T06:57:37.074Z,95241
2019-05-05T06:58:47.574Z,95245
2019-05-05T06:59:57.098Z,95247
2019-05-05T07:01:06.645Z,95246
2019-05-05T07:02:17.181Z,95243
2019-05-05T07:03:26.724Z,95246
2019-05-05T07:04:36.234Z,95245
2019-05-05T07:05:46.751Z,95243
2019-05-05T07:06:57.326Z,95249
2019-05-05T07:08:07.808Z,95253
2019-05-05T07:09:17.331Z,95249
2019-05-05T07:10:27.849Z,95250
2019-05-05T07:11:37.393Z,95256
2019-05-05T07:12:46.925Z,95256
2019-05-05T07:13:57.435Z,95256
2019-05-05T07:15:06.959Z,95259
2019-05-05T07:16:17.497Z,95262
2019-05-05T07:17:27.002Z,95266
2019-05-05T07:18:36.767Z,95264
2019-05-05T07:19:47.302Z,95267
2019-05-05T07:20:56.850Z,95269
2019-05-05T07:22:06.370Z,95270
2019-05-05T07:23:16.902Z,95266
2019-05-05T07:24:27.431Z,95266
2019-05-05T07:25:42.657Z,95268
2019-05-05T07:26:47.441Z,95271
2019-05-05T07:27:56.944Z,95270
2019-05-05T07:29:07.451Z,95272
2019-05-05T07:30:18.000Z,95272
2019-05-05T07:31:27.523Z,95275
2019-05-05T07:32:37.046Z,95276
2019-05-05T07:33:47.613Z,95277
2019-05-05T07:34:57.118Z,95275
2019-05-05T07:36:06.652Z,95277
2019-05-05T07:37:17.150Z,95284
2019-05-05T07:38:26.660Z,95280
2019-05-05T07:39:36.172Z,95279
2019-05-05T07:40:46.712Z,95283
2019-05-05T07:41:57.208Z,95284
2019-05-05T07:43:07.742Z,95286
2019-05-05T07:44:26.438Z,95284
2019-05-05T07:45:27.764Z,95280
2019-05-05T07:46:37.367Z,95283
2019-05-05T07:47:47.443Z,95284
2019-05-05T07:48:57.355Z,95285
2019-05-05T07:50:06.862Z,95284
2019-05-05T07:51:17.384Z,95286
2019-05-05T07:52:26.913Z,95281
2019-05-05T07:53:37.450Z,95282
2019-05-05T07:54:47.130Z,95273
2019-05-05T07:55:58.338Z,95280
2019-05-05T07:57:08.877Z,95281
2019-05-05T07:58:18.421Z,95279
2019-05-05T07:59:27.938Z,95280
2019-05-05T08:00:37.449Z,95283
2019-05-05T08:01:46.969Z,95286
2019-05-05T08:02:57.474Z,95289
2019-05-05T08:04:06.988Z,95288
2019-05-05T08:05:16.567Z,95290
2019-05-05T08:06:27.113Z,95290
2019-05-05T08:07:36.667Z,95287
2019-05-05T08:08:47.194Z,95292
2019-05-05T08:09:57.716Z,95285
2019-05-05T08:11:07.261Z,95290
2019-05-05T08:12:17.867Z,95292
2019-05-05T08:13:28.395Z,95293
2019-05-05T08:14:37.934Z,95296
2019-05-05T08:15:57.427Z,95296
2019-05-05T08:16:58.008Z,95297
2019-05-05T08:18:07.496Z,95293
2019-05-05T08:19:17.035Z,95291
2019-05-05T08:20:27.574Z,95292
2019-05-05T08:21:37.120Z,95293
2019-05-05T08:22:46.641Z,95291
2019-05-05T08:23:56.181Z,95290
2019-05-05T08:25:06.713Z,95294
2019-05-05T08:26:17.295Z,95296
2019-05-05T08:27:26.819Z,95296
2019-05-05T08:28:36.374Z,95293
2019-05-05T08:29:45.932Z,95298
2019-05-05T08:30:56.471Z,95298
2019-05-05T08:32:07.100Z,95301
2019-05-05T08:33:16.626Z,95300
2019-05-05T08:34:27.141Z,95296
2019-05-05T08:35:36.686Z,95296
2019-05-05T08:36:47.218Z,95299
2019-05-05T08:37:56.866Z,95298
2019-05-05T08:39:07.406Z,95291
2019-05-05T08:40:16.937Z,95292
2019-05-05T08:41:26.464Z,95297
2019-05-05T08:42:36.955Z,95295
2019-05-05T08:43:47.472Z,95291
2019-05-05T08:44:57.003Z,95297
2019-05-05T08:46:07.515Z,95294
2019-05-05T08:47:17.064Z,95290
2019-05-05T08:48:27.576Z,95292
2019-05-05T08:49:37.105Z,95291
2019-05-05T08:50:47.609Z,95295
2019-05-05T08:51:57.137Z,95292
2019-05-05T08:53:08.452Z,95297
2019-05-05T08:54:17.151Z,95297
2019-05-05T08:55:28.394Z,95299
2019-05-05T08:56:37.201Z,95302
2019-05-05T08:57:47.750Z,95297
2019-05-05T08:58:57.270Z,95304
2019-05-05T09:00:06.777Z,95299
2019-05-05T09:01:16.287Z,95299
2019-05-05T09:02:26.814Z,95297
2019-05-05T09:03:37.326Z,95293
2019-05-05T09:04:46.883Z,95298
2019-05-05T09:05:56.395Z,95304
2019-05-05T09:07:06.920Z,95303
2019-05-05T09:08:16.454Z,95296
2019-05-05T09:09:26.966Z,95295
2019-05-05T09:10:36.497Z,95294
2019-05-05T09:11:47.003Z,95293
2019-05-05T09:12:57.557Z,95290
2019-05-05T09:14:07.069Z,95288
2019-05-05T09:15:17.596Z,95296
2019-05-05T09:16:27.126Z,95297
2019-05-05T09:17:36.649Z,95299
2019-05-05T09:18:47.160Z,95297
2019-05-05T09:19:57.745Z,95298
2019-05-05T09:21:07.334Z,95293
2019-05-05T09:22:16.859Z,95295
2019-05-05T09:23:27.441Z,95298
2019-05-05T09:24:38.190Z,95295
2019-05-05T09:25:47.725Z,95290
2019-05-05T09:26:57.241Z,95296
2019-05-05T09:28:06.769Z,95287
2019-05-05T09:29:17.294Z,95292
2019-05-05T09:30:26.808Z,95290
2019-05-05T09:31:36.327Z,95288
2019-05-05T09:32:46.879Z,95293
2019-05-05T09:33:57.378Z,95298
2019-05-05T09:35:06.907Z,95299
2019-05-05T09:36:16.461Z,95300
2019-05-05T09:37:26.984Z,95297
2019-05-05T09:38:36.513Z,95295
2019-05-05T09:39:47.039Z,95297
2019-05-05T09:40:57.543Z,95294
2019-05-05T09:42:08.038Z,95301
2019-05-05T09:43:17.579Z,95299
2019-05-05T09:44:27.081Z,95299
2019-05-05T09:45:37.599Z,95293
2019-05-05T09:46:47.127Z,95298
2019-05-05T09:47:56.653Z,95295
2019-05-05T09:49:07.191Z,95294
2019-05-05T09:50:16.717Z,95294
2019-05-05T09:51:26.224Z,95298
2019-05-05T09:52:36.780Z,95301
2019-05-05T09:53:47.332Z,95302
2019-05-05T09:54:56.869Z,95297
2019-05-05T09:56:06.388Z,95298
2019-05-05T09:57:16.897Z,95298
2019-05-05T09:58:26.436Z,95299
2019-05-05T09:59:39.987Z,95298
2019-05-05T10:00:47.445Z,95302
2019-05-05T10:01:57.974Z,95301
2019-05-05T10:03:07.501Z,95302
2019-05-05T10:04:17.040Z,95307
2019-05-05T10:05:27.555Z,95305
2019-05-05T10:06:37.097Z,95307
2019-05-05T10:07:47.605Z,95305
2019-05-05T10:08:57.132Z,95303
2019-05-05T10:10:06.658Z,95304
2019-05-05T10:11:17.165Z,95309
2019-05-05T10:12:26.679Z,95306
2019-05-05T10:13:37.234Z,95306
2019-05-05T10:14:46.768Z,95304
2019-05-05T10:15:57.298Z,95305
2019-05-05T10:17:06.798Z,95305
2019-05-05T10:18:17.338Z,95305
2019-05-05T10:19:27.836Z,95308
2019-05-05T10:20:37.353Z,95308
2019-05-05T10:21:46.873Z,95305
2019-05-05T10:22:56.405Z,95307
2019-05-05T10:24:05.957Z,95310
2019-05-05T10:25:16.459Z,95307
2019-05-05T10:26:26.974Z,95311
2019-05-05T10:27:44.712Z,95307
2019-05-05T10:28:48.045Z,95305
2019-05-05T10:29:57.549Z,95305
2019-05-05T10:31:07.053Z,95305
2019-05-05T10:32:16.583Z,95304
2019-05-05T10:33:27.094Z,95302
2019-05-05T10:34:37.623Z,95304
2019-05-05T10:35:47.145Z,95303
2019-05-05T10:36:56.673Z,95301
2019-05-05T10:38:07.177Z,95302
2019-05-05T10:39:17.703Z,95302
2019-05-05T10:40:27.266Z,95303
2019-05-05T10:41:36.754Z,95301
2019-05-05T10:42:47.291Z,95309
2019-05-05T10:43:56.802Z,95308
2019-05-05T10:45:06.335Z,95306
2019-05-05T10:46:16.849Z,95301
2019-05-05T10:47:26.352Z,95307
2019-05-05T10:48:35.902Z,95304
2019-05-05T10:49:45.423Z,95306
2019-05-05T10:50:54.969Z,95302
2019-05-05T10:52:04.507Z,95301
2019-05-05T10:53:14.030Z,95299
2019-05-05T10:54:23.773Z,95292
2019-05-05T10:55:34.743Z,95302
2019-05-05T10:56:43.584Z,95299
2019-05-05T10:57:54.227Z,95302
2019-05-05T10:59:03.916Z,95302
2019-05-05T11:00:14.823Z,95302
2019-05-05T11:01:23.463Z,95302
2019-05-05T11:02:32.205Z,95296
2019-05-05T11:03:41.765Z,95297
2019-05-05T11:04:51.322Z,95294
2019-05-05T11:06:00.859Z,95298
2019-05-05T11:07:10.381Z,95301
2019-05-05T11:08:19.919Z,95300
2019-05-05T11:09:29.476Z,95303
2019-05-05T11:10:38.998Z,95306
2019-05-05T11:11:48.500Z,95310
2019-05-05T11:12:58.018Z,95305
2019-05-05T11:14:07.583Z,95308
2019-05-05T11:15:17.097Z,95306
2019-05-05T11:16:27.633Z,95306
2019-05-05T11:17:37.164Z,95309
2019-05-05T11:18:46.748Z,95310
2019-05-05T11:19:57.249Z,95314
2019-05-05T11:21:06.804Z,95317
2019-05-05T11:22:17.324Z,95313
2019-05-05T11:23:26.842Z,95310
2019-05-05T11:24:37.405Z,95324
2019-05-05T11:25:47.910Z,95318
2019-05-05T11:26:57.470Z,95317
2019-05-05T11:28:06.997Z,95322
2019-05-05T11:29:16.556Z,95318
2019-05-05T11:30:27.067Z,95319
2019-05-05T11:31:36.581Z,95315
2019-05-05T11:32:46.095Z,95320
2019-05-05T11:33:55.649Z,95325
2019-05-05T11:35:05.163Z,95328
2019-05-05T11:36:14.658Z,95332
2019-05-05T11:37:24.191Z,95333
2019-05-05T11:38:34.706Z,95336
2019-05-05T11:39:44.587Z,95330
2019-05-05T11:40:54.617Z,95333
2019-05-05T11:42:04.350Z,95330
2019-05-05T11:43:14.177Z,95321
2019-05-05T11:44:24.043Z,95329
2019-05-05T11:45:31.846Z,95323
2019-05-05T11:46:41.361Z,95326
2019-05-05T11:47:50.881Z,95317
2019-05-05T11:49:00.427Z,95322
2019-05-05T11:50:09.953Z,95322
2019-05-05T11:51:19.488Z,95334
2019-05-05T11:52:28.995Z,95333
2019-05-05T11:53:38.535Z,95331
2019-05-05T11:54:48.092Z,95332
2019-05-05T11:55:58.587Z,95332
2019-05-05T11:57:08.118Z,95330
2019-05-05T11:58:17.621Z,95329
2019-05-05T11:59:28.177Z,95326
2019-05-05T12:00:37.717Z,95327
2019-05-05T12:01:47.247Z,95329
2019-05-05T12:02:57.762Z,95326
2019-05-05T12:04:07.285Z,95322
2019-05-05T12:05:17.811Z,95325
2019-05-05T12:06:27.329Z,95324
2019-05-05T12:07:36.867Z,95327
2019-05-05T12:08:46.382Z,95326
2019-05-05T12:09:55.912Z,95324
2019-05-05T12:11:05.419Z,95328
2019-05-05T12:12:14.941Z,95330
2019-05-05T12:13:24.469Z,95329
2019-05-05T12:14:33.981Z,95335
2019-05-05T12:15:44.596Z,95337
2019-05-05T12:16:53.030Z,95338
2019-05-05T12:18:03.802Z,95332
2019-05-05T12:19:13.681Z,95331
2019-05-05T12:20:21.612Z,95336
2019-05-05T12:21:31.155Z,95334
2019-05-05T12:22:40.679Z,95326
2019-05-05T12:23:50.192Z,95328
2019-05-05T12:24:59.728Z,95328
2019-05-05T12:26:09.228Z,95334
2019-05-05T12:27:18.735Z,95330
2019-05-05T12:28:28.241Z,95333
2019-05-05T12:29:37.762Z,95332
2019-05-05T12:30:47.290Z,95339
2019-05-05T12:31:57.825Z,95339
2019-05-05T12:33:07.348Z,95337
2019-05-05T12:34:16.869Z,95337
2019-05-05T12:35:26.414Z,95334
2019-05-05T12:36:36.957Z,95336
2019-05-05T12:37:47.495Z,95339
2019-05-05T12:38:56.994Z,95330
2019-05-05T12:40:06.539Z,95348
2019-05-05T12:41:17.052Z,95344
2019-05-05T12:42:26.568Z,95348
2019-05-05T12:43:36.090Z,95349
2019-05-05T12:44:46.630Z,95350
2019-05-05T12:45:57.143Z,95356
2019-05-05T12:47:07.681Z,95354
2019-05-05T12:48:17.229Z,95348
2019-05-05T12:49:26.774Z,95347
2019-05-05T12:50:36.317Z,95343
2019-05-05T12:51:46.816Z,95350
2019-05-05T12:52:57.311Z,95347
2019-05-05T12:54:06.801Z,95351
2019-05-05T12:55:17.319Z,95346
2019-05-05T12:56:27.849Z,95347
2019-05-05T12:57:37.343Z,95342
2019-05-05T12:58:46.870Z,95346
2019-05-05T12:59:57.397Z,95340
2019-05-05T13:01:06.927Z,95341
2019-05-05T13:02:17.425Z,95342
2019-05-05T13:03:26.961Z,95343
2019-05-05T13:04:37.476Z,95342
2019-05-05T13:05:47.014Z,95342
2019-05-05T13:06:56.545Z,95343
2019-05-05T13:08:07.062Z,95342
2019-05-05T13:09:17.567Z,95349
2019-05-05T13:10:27.124Z,95345
2019-05-05T13:11:36.627Z,95344
2019-05-05T13:12:46.143Z,95339
2019-05-05T13:13:56.646Z,95339
2019-05-05T13:15:06.210Z,95342
2019-05-05T13:16:16.706Z,95342
2019-05-05T13:17:27.231Z,95346
2019-05-05T13:18:36.767Z,95353
2019-05-05T13:19:46.284Z,95353
2019-05-05T13:20:55.837Z,95355
2019-05-05T13:22:06.349Z,95356
2019-05-05T13:23:15.877Z,95357
2019-05-05T13:24:26.373Z,95363
2019-05-05T13:25:36.908Z,95360
2019-05-05T13:26:47.395Z,95367
2019-05-05T13:27:57.524Z,95369
2019-05-05T13:29:06.771Z,95367
2019-05-05T13:30:17.293Z,95370
2019-05-05T13:31:26.827Z,95376
2019-05-05T13:32:36.375Z,95375
2019-05-05T13:33:46.874Z,95372
2019-05-05T13:34:57.409Z,95377
2019-05-05T13:36:06.966Z,95376
2019-05-05T13:37:16.472Z,95378
2019-05-05T13:38:26.996Z,95376
2019-05-05T13:39:37.528Z,95373
2019-05-05T13:40:47.124Z,95369
2019-05-05T13:41:57.628Z,95375
2019-05-05T13:43:07.138Z,95377
2019-05-05T13:44:17.669Z,95369
2019-05-05T13:45:27.193Z,95368
2019-05-05T13:46:36.744Z,95365
2019-05-05T13:47:47.250Z,95371
2019-05-05T13:48:56.790Z,95363
2019-05-05T13:50:07.296Z,95366
2019-05-05T13:51:16.858Z,95363
2019-05-05T13:52:27.372Z,95369
2019-05-05T13:53:36.884Z,95366
2019-05-05T13:54:47.398Z,95369
2019-05-05T13:56:08.740Z,95362
2019-05-05T13:57:07.397Z,95366
2019-05-05T13:58:16.921Z,95364
2019-05-05T13:59:27.432Z,95363
2019-05-05T14:00:36.949Z,95366
2019-05-05T14:01:47.503Z,95365
2019-05-05T14:02:57.020Z,95365
2019-05-05T14:04:06.539Z,95363
2019-05-05T14:05:16.083Z,95371
2019-05-05T14:06:26.630Z,95367
2019-05-05T14:07:36.268Z,95367
2019-05-05T14:08:46.779Z,95370
2019-05-05T14:09:58.988Z,95367
2019-05-05T14:11:06.858Z,95367
2019-05-05T14:12:17.391Z,95370
2019-05-05T14:13:26.921Z,95367
2019-05-05T14:14:37.433Z,95375
2019-05-05T14:15:46.964Z,95363
2019-05-05T14:16:57.486Z,95368
2019-05-05T14:18:07.024Z,95370
2019-05-05T14:19:17.543Z,95372
2019-05-05T14:20:28.057Z,95373
2019-05-05T14:21:37.586Z,95372
2019-05-05T14:22:47.141Z,95377
2019-05-05T14:23:57.684Z,95381
2019-05-05T14:25:07.208Z,95370
2019-05-05T14:26:25.442Z,95379
2019-05-05T14:27:27.226Z,95374
2019-05-05T14:28:36.758Z,95375
2019-05-05T14:29:46.284Z,95375
2019-05-05T14:30:55.804Z,95378
2019-05-05T14:32:05.337Z,95369
2019-05-05T14:33:15.843Z,95373
2019-05-05T14:34:26.356Z,95368
2019-05-05T14:35:35.938Z,95373
2019-05-05T14:36:46.463Z,95367
2019-05-05T14:37:56.015Z,95365
2019-05-05T14:39:06.541Z,95370
2019-05-05T14:40:17.053Z,95369
2019-05-05T14:41:26.587Z,95365
2019-05-05T14:42:37.217Z,95365
2019-05-05T14:43:46.741Z,95366
2019-05-05T14:44:57.254Z,95364
2019-05-05T14:46:07.756Z,95359
2019-05-05T14:47:17.294Z,95353
2019-05-05T14:48:27.875Z,95356
2019-05-05T14:49:38.385Z,95354
2019-05-05T14:50:47.892Z,95351
2019-05-05T14:51:57.425Z,95350
2019-05-05T14:53:06.945Z,95353
2019-05-05T14:54:17.499Z,95351
2019-05-05T14:55:27.023Z,95347
2019-05-05T14:56:36.776Z,95347
2019-05-05T14:57:47.075Z,95346
2019-05-05T14:58:56.579Z,95348
2019-05-05T15:00:07.107Z,95343